createdAt,value
2019-05-16T00:01:19.384Z,11.90
2019-05-16T00:03:48.982Z,11.90
2019-05-16T00:06:19.724Z,11.90
2019-05-16T00:08:50.283Z,11.80
2019-05-16T00:11:20.801Z,11.80
2019-05-16T00:13:51.282Z,11.80
2019-05-16T00:16:21.966Z,11.80
2019-05-16T00:18:52.534Z,11.80
2019-05-16T00:21:23.163Z,11.80
2019-05-16T00:23:53.728Z,11.80
2019-05-16T00:26:24.374Z,11.80
2019-05-16T00:28:54.969Z,11.80
2019-05-16T00:31:25.539Z,11.80
2019-05-16T00:33:57.875Z,11.80
2019-05-16T00:36:28.528Z,11.80
2019-05-16T00:38:59.071Z,11.80
2019-05-16T00:41:29.711Z,11.70
2019-05-16T00:44:00.224Z,11.70
2019-05-16T00:46:30.937Z,11.70
2019-05-16T00:49:01.576Z,11.70
2019-05-16T00:51:32.927Z,11.70
2019-05-16T00:54:03.512Z,11.70
2019-05-16T00:56:35.159Z,11.70
2019-05-16T00:59:07.887Z,11.60
2019-05-16T01:01:38.900Z,11.70
2019-05-16T01:04:09.596Z,11.60
2019-05-16T01:06:40.120Z,11.60
2019-05-16T01:09:11.687Z,11.60
2019-05-16T01:11:44.230Z,11.50
2019-05-16T01:14:14.832Z,11.40
2019-05-16T01:16:45.298Z,11.40
2019-05-16T01:19:15.887Z,11.40
2019-05-16T01:21:48.340Z,11.40
2019-05-16T01:24:18.909Z,11.30
2019-05-16T01:26:49.612Z,11.30
2019-05-16T01:29:20.154Z,11.30
2019-05-16T01:31:50.625Z,11.30
2019-05-16T01:34:21.144Z,11.40
2019-05-16T01:36:51.942Z,11.40
2019-05-16T01:39:22.580Z,11.30
2019-05-16T01:41:53.106Z,11.30
2019-05-16T01:44:23.702Z,11.30
2019-05-16T01:46:54.413Z,11.30
2019-05-16T01:49:25.134Z,11.30
2019-05-16T01:51:57.740Z,11.20
2019-05-16T01:54:28.298Z,11.20
2019-05-16T01:57:00.043Z,11.20
2019-05-16T01:59:30.527Z,11.20
2019-05-16T02:02:01.576Z,11.30
2019-05-16T02:04:32.184Z,11.30
2019-05-16T02:07:02.818Z,11.20
2019-05-16T02:09:33.416Z,11.30
2019-05-16T02:12:04.050Z,11.20
2019-05-16T02:14:34.606Z,11.20
2019-05-16T02:17:05.390Z,11.20
2019-05-16T02:19:38.352Z,11.30
2019-05-16T02:22:08.893Z,11.30
2019-05-16T02:24:39.640Z,11.30
2019-05-16T02:27:10.155Z,11.30
2019-05-16T02:29:40.712Z,11.30
2019-05-16T02:32:11.787Z,11.30
2019-05-16T02:34:43.311Z,11.30
2019-05-16T02:37:24.501Z,11.20
2019-05-16T02:39:46.209Z,11.20
2019-05-16T02:42:16.830Z,11.20
2019-05-16T02:44:47.441Z,11.20
2019-05-16T02:47:20.725Z,11.20
2019-05-16T02:49:50.614Z,11.20
2019-05-16T02:52:21.702Z,11.20
2019-05-16T02:54:52.491Z,11.20
2019-05-16T02:57:23.054Z,11.10
2019-05-16T02:59:53.575Z,11.20
2019-05-16T03:02:24.181Z,11.10
2019-05-16T03:04:54.754Z,11.10
2019-05-16T03:07:37.627Z,11.10
2019-05-16T03:10:01.625Z,11.10
2019-05-16T03:12:33.020Z,11.10
2019-05-16T03:15:04.343Z,11.10
2019-05-16T03:17:36.156Z,11.10
2019-05-16T03:20:10.538Z,11.10
2019-05-16T03:22:41.185Z,11.00
2019-05-16T03:25:12.880Z,11.00
2019-05-16T03:27:43.591Z,11.00
2019-05-16T03:30:16.590Z,11.10
2019-05-16T03:32:46.829Z,11.10
2019-05-16T03:35:19.362Z,11.00
2019-05-16T03:37:55.808Z,11.00
2019-05-16T03:40:27.225Z,11.00
2019-05-16T03:43:01.022Z,11.00
2019-05-16T03:45:31.775Z,11.00
2019-05-16T03:48:03.372Z,11.00
2019-05-16T03:50:34.298Z,11.00
2019-05-16T03:53:04.902Z,11.00
2019-05-16T03:55:35.512Z,11.00
2019-05-16T03:58:06.158Z,11.00
2019-05-16T04:00:55.756Z,11.00
2019-05-16T04:03:28.886Z,11.00
2019-05-16T04:06:01.191Z,11.00
2019-05-16T04:08:31.290Z,11.00
2019-05-16T04:11:01.907Z,11.00
2019-05-16T04:13:32.877Z,11.00
2019-05-16T04:16:03.430Z,11.00
2019-05-16T04:18:34.182Z,11.00
2019-05-16T04:21:04.967Z,11.00
2019-05-16T04:23:35.489Z,11.00
2019-05-16T04:26:06.026Z,11.10
2019-05-16T04:28:36.575Z,11.00
2019-05-16T04:31:07.092Z,11.10
2019-05-16T04:33:37.584Z,11.10
2019-05-16T04:36:10.804Z,11.10
2019-05-16T04:38:46.002Z,11.10
2019-05-16T04:41:12.402Z,11.10
2019-05-16T04:43:42.969Z,11.10
2019-05-16T04:46:13.471Z,11.10
2019-05-16T04:48:44.074Z,11.10
2019-05-16T04:51:14.578Z,11.10
2019-05-16T04:53:45.074Z,11.10
2019-05-16T04:56:15.708Z,11.10
2019-05-16T04:58:46.311Z,11.00
2019-05-16T05:01:16.843Z,11.00
2019-05-16T05:04:02.097Z,11.00
2019-05-16T05:06:20.792Z,11.00
2019-05-16T05:08:58.429Z,11.00
2019-05-16T05:11:24.652Z,11.10
2019-05-16T05:13:55.158Z,11.10
2019-05-16T05:16:25.714Z,11.10
2019-05-16T05:18:56.266Z,11.20
2019-05-16T05:21:26.844Z,11.20
2019-05-16T05:23:59.949Z,11.30
2019-05-16T05:26:30.606Z,11.30
2019-05-16T05:29:01.562Z,11.40
2019-05-16T05:31:34.998Z,11.50
2019-05-16T05:34:13.913Z,11.60
2019-05-16T05:36:44.480Z,11.60
2019-05-16T05:39:15.685Z,11.60
2019-05-16T05:41:46.296Z,11.60
2019-05-16T05:44:16.817Z,11.60
2019-05-16T05:46:47.457Z,11.70
2019-05-16T05:49:20.346Z,11.70
2019-05-16T05:51:50.247Z,11.70
2019-05-16T05:54:20.782Z,11.80
2019-05-16T05:56:51.723Z,11.80
2019-05-16T05:59:22.269Z,11.80
2019-05-16T06:01:53.143Z,11.90
2019-05-16T06:04:23.909Z,12.00
2019-05-16T06:06:54.530Z,12.00
2019-05-16T06:09:29.051Z,12.10
2019-05-16T06:11:57.171Z,12.20
2019-05-16T06:14:30.445Z,12.30
2019-05-16T06:17:00.434Z,12.30
2019-05-16T06:19:31.093Z,12.40
2019-05-16T06:22:01.740Z,12.40
2019-05-16T06:24:32.502Z,12.50
2019-05-16T06:27:03.007Z,12.60
2019-05-16T06:29:33.581Z,12.60
2019-05-16T06:32:04.128Z,12.70
2019-05-16T06:34:34.647Z,12.60
2019-05-16T06:37:05.515Z,12.70
2019-05-16T06:39:41.995Z,12.80
2019-05-16T06:42:09.870Z,12.80
2019-05-16T06:44:40.561Z,13.00
2019-05-16T06:47:19.384Z,13.10
2019-05-16T06:49:46.977Z,13.20
2019-05-16T06:52:19.612Z,13.30
2019-05-16T06:54:50.416Z,13.40
2019-05-16T06:57:21.839Z,13.40
2019-05-16T06:59:52.546Z,13.40
2019-05-16T07:02:29.872Z,13.40
2019-05-16T07:04:55.398Z,13.50
2019-05-16T07:07:25.907Z,13.50
2019-05-16T07:10:00.751Z,13.50
2019-05-16T07:12:31.481Z,13.60
2019-05-16T07:15:02.109Z,13.60
2019-05-16T07:17:33.950Z,13.70
2019-05-16T07:20:04.790Z,13.90
2019-05-16T07:22:35.305Z,13.90
2019-05-16T07:25:06.248Z,14.00
2019-05-16T07:27:40.028Z,14.10
2019-05-16T07:30:11.764Z,14.10
2019-05-16T07:32:42.365Z,14.00
2019-05-16T07:35:12.956Z,14.10
2019-05-16T07:37:43.594Z,14.00
2019-05-16T07:40:22.341Z,14.00
2019-05-16T07:42:47.892Z,14.00
2019-05-16T07:45:20.355Z,14.20
2019-05-16T07:47:51.230Z,14.20
2019-05-16T07:50:21.731Z,14.30
2019-05-16T07:52:52.247Z,14.30
2019-05-16T07:55:22.818Z,14.20
2019-05-16T07:57:53.462Z,14.40
2019-05-16T08:00:43.468Z,14.40
2019-05-16T08:02:56.659Z,14.60
2019-05-16T08:05:29.853Z,14.70
2019-05-16T08:08:00.071Z,14.60
2019-05-16T08:10:37.883Z,14.80
2019-05-16T08:13:03.571Z,14.70
2019-05-16T08:15:34.340Z,14.70
2019-05-16T08:18:05.122Z,14.70
2019-05-16T08:20:35.705Z,14.80
2019-05-16T08:23:06.262Z,14.70
2019-05-16T08:25:40.632Z,14.70
2019-05-16T08:28:11.689Z,14.50
2019-05-16T08:30:42.447Z,14.40
2019-05-16T08:33:13.707Z,14.40
2019-05-16T08:35:44.579Z,14.20
2019-05-16T08:38:15.175Z,14.10
2019-05-16T08:41:04.352Z,14.20
2019-05-16T08:43:21.353Z,14.30
2019-05-16T08:45:51.484Z,14.40
2019-05-16T08:50:55.171Z,14.70
2019-05-16T08:53:25.996Z,14.70
2019-05-16T08:55:56.587Z,14.80
2019-05-16T08:58:27.325Z,15.20
2019-05-16T09:01:01.939Z,15.50
2019-05-16T09:03:32.278Z,15.70
2019-05-16T09:06:03.275Z,15.80
2019-05-16T09:08:33.969Z,15.80
2019-05-16T09:10:31.814Z,14.50
2019-05-16T09:11:24.940Z,15.80
2019-05-16T09:13:37.080Z,15.90
2019-05-16T09:16:07.986Z,15.60
2019-05-16T09:18:45.847Z,15.60
2019-05-16T09:21:11.655Z,15.90
2019-05-16T09:23:42.202Z,16.20
2019-05-16T09:26:16.141Z,16.40
2019-05-16T09:28:47.954Z,16.50
2019-05-16T09:31:24.005Z,16.70
2019-05-16T09:33:49.062Z,16.50
2019-05-16T09:36:19.679Z,16.50
2019-05-16T09:38:50.191Z,16.40
2019-05-16T09:41:20.702Z,16.40
2019-05-16T09:43:51.253Z,16.00
2019-05-16T09:46:21.738Z,15.80
2019-05-16T09:49:10.078Z,15.70
2019-05-16T09:51:26.908Z,15.80
2019-05-16T09:53:56.891Z,16.20
2019-05-16T09:56:27.549Z,16.30
2019-05-16T09:58:58.145Z,16.80
2019-05-16T10:01:28.678Z,17.10
2019-05-16T10:03:59.276Z,17.30
2019-05-16T10:06:29.772Z,17.70
2019-05-16T10:09:00.436Z,17.80
2019-05-16T10:11:32.749Z,17.80
2019-05-16T10:14:03.372Z,17.50
2019-05-16T10:16:36.519Z,17.40
2019-05-16T10:19:07.471Z,17.80
2019-05-16T10:21:39.357Z,17.80
2019-05-16T10:24:09.822Z,17.50
2019-05-16T10:26:40.413Z,17.40
2019-05-16T10:29:11.139Z,17.70
2019-05-16T10:31:49.309Z,18.00
2019-05-16T10:34:13.900Z,18.20
2019-05-16T10:36:47.009Z,18.60
2019-05-16T10:39:16.722Z,18.20
2019-05-16T10:41:47.376Z,18.00
2019-05-16T10:44:17.908Z,17.80
2019-05-16T10:46:48.543Z,17.60
2019-05-16T10:49:33.205Z,17.60
2019-05-16T10:51:51.147Z,17.60
2019-05-16T10:54:21.831Z,17.60
2019-05-16T10:56:52.664Z,17.50
2019-05-16T10:59:54.620Z,17.50
2019-05-16T11:01:56.342Z,17.50
2019-05-16T11:04:37.179Z,17.50
2019-05-16T11:07:01.388Z,17.40
2019-05-16T11:09:31.942Z,17.20
2019-05-16T11:12:02.436Z,17.20
2019-05-16T11:14:32.969Z,17.00
2019-05-16T11:17:03.464Z,16.90
2019-05-16T11:19:33.990Z,16.80
2019-05-16T11:22:04.573Z,16.90
2019-05-16T11:24:37.547Z,17.10
2019-05-16T11:27:07.628Z,17.10
2019-05-16T11:29:38.223Z,17.10
2019-05-16T11:32:09.172Z,16.90
2019-05-16T11:34:39.744Z,16.70
2019-05-16T11:39:40.029Z,16.60
2019-05-16T11:42:10.535Z,17.00
2019-05-16T11:44:40.994Z,17.40
2019-05-16T11:47:11.463Z,17.50
2019-05-16T11:49:41.992Z,17.30
2019-05-16T11:52:12.445Z,17.80
2019-05-16T11:54:42.984Z,17.90
2019-05-16T11:57:13.453Z,18.00
2019-05-16T11:59:44.036Z,18.00
2019-05-16T12:02:17.516Z,17.80
2019-05-16T12:04:47.510Z,17.80
2019-05-16T12:07:19.240Z,17.90
2019-05-16T12:09:55.136Z,18.10
2019-05-16T12:12:23.099Z,18.20
2019-05-16T12:14:56.000Z,18.20
2019-05-16T12:17:27.950Z,18.40
2019-05-16T12:19:58.009Z,18.40
2019-05-16T12:22:28.516Z,18.20
2019-05-16T12:24:59.159Z,18.20
2019-05-16T12:27:32.485Z,18.30
2019-05-16T12:30:01.930Z,18.10
2019-05-16T12:32:32.882Z,18.20
2019-05-16T12:35:03.559Z,18.40
2019-05-16T12:37:36.956Z,18.60
2019-05-16T12:40:06.743Z,18.40
2019-05-16T12:42:37.280Z,18.50
2019-05-16T12:45:08.590Z,18.30
2019-05-16T12:47:39.106Z,18.20
2019-05-16T12:50:10.201Z,18.10
2019-05-16T12:52:40.762Z,18.10
2019-05-16T12:55:12.760Z,18.70
2019-05-16T12:57:43.323Z,18.60
2019-05-16T13:00:15.755Z,18.60
2019-05-16T13:02:47.490Z,18.60
2019-05-16T13:05:18.863Z,18.70
2019-05-16T13:07:49.358Z,19.10
2019-05-16T13:10:20.787Z,19.10
2019-05-16T13:12:51.280Z,19.40
2019-05-16T13:15:21.872Z,19.30
2019-05-16T13:18:04.507Z,19.10
2019-05-16T13:20:37.576Z,19.00
2019-05-16T13:23:14.411Z,18.70
2019-05-16T13:25:39.308Z,18.80
2019-05-16T13:28:09.776Z,18.60
2019-05-16T13:30:40.435Z,18.80
2019-05-16T13:33:11.028Z,18.50
2019-05-16T13:35:41.539Z,18.80
2019-05-16T13:38:12.087Z,18.60
2019-05-16T13:40:42.565Z,18.70
2019-05-16T13:43:13.272Z,18.80
2019-05-16T13:45:43.739Z,18.60
2019-05-16T13:48:14.229Z,18.40
2019-05-16T13:50:47.150Z,18.60
2019-05-16T13:53:17.037Z,18.60
2019-05-16T13:55:47.587Z,18.80
2019-05-16T13:58:18.089Z,18.70
2019-05-16T14:00:48.654Z,18.50
2019-05-16T14:03:19.222Z,18.50
2019-05-16T14:05:49.755Z,18.90
2019-05-16T14:08:20.299Z,18.80
2019-05-16T14:10:50.853Z,18.80
2019-05-16T14:13:21.311Z,18.60
2019-05-16T14:15:51.921Z,18.50
2019-05-16T14:18:22.400Z,18.40
2019-05-16T14:20:52.878Z,18.30
2019-05-16T14:23:23.350Z,18.10
2019-05-16T14:25:53.881Z,18.10
2019-05-16T14:28:24.384Z,18.40
2019-05-16T14:30:57.069Z,18.50
2019-05-16T14:33:27.616Z,18.50
2019-05-16T14:35:59.274Z,18.70
2019-05-16T14:38:29.813Z,18.60
2019-05-16T14:41:00.720Z,18.60
2019-05-16T14:43:31.350Z,18.80
2019-05-16T14:46:01.913Z,19.10
2019-05-16T14:48:32.446Z,18.90
2019-05-16T14:51:03.168Z,19.00
2019-05-16T14:53:33.734Z,19.10
2019-05-16T14:56:07.124Z,18.90
2019-05-16T14:58:37.783Z,18.80
2019-05-16T15:01:08.616Z,18.50
2019-05-16T15:03:39.128Z,18.70
2019-05-16T15:06:09.604Z,18.70
2019-05-16T15:08:40.402Z,18.70
2019-05-16T15:11:10.864Z,18.60
2019-05-16T15:13:41.554Z,18.20
2019-05-16T15:16:12.048Z,18.30
2019-05-16T15:18:42.590Z,18.20
2019-05-16T15:21:13.261Z,18.10
2019-05-16T15:23:43.800Z,17.80
2019-05-16T15:26:14.324Z,17.40
2019-05-16T15:28:47.988Z,17.50
2019-05-16T15:31:16.964Z,17.50
2019-05-16T15:33:47.671Z,17.50
2019-05-16T15:36:18.366Z,17.50
2019-05-16T15:38:48.809Z,17.60
2019-05-16T15:41:19.296Z,17.50
2019-05-16T15:43:50.090Z,17.30
2019-05-16T15:46:20.985Z,17.20
2019-05-16T15:48:51.706Z,17.20
2019-05-16T15:51:23.544Z,17.00
2019-05-16T15:53:57.091Z,17.00
2019-05-16T15:56:27.233Z,17.10
2019-05-16T15:58:58.816Z,17.00
2019-05-16T16:03:59.458Z,16.90
2019-05-16T16:06:30.079Z,16.90
2019-05-16T16:09:00.746Z,16.90
2019-05-16T16:11:32.891Z,16.70
2019-05-16T16:14:03.528Z,16.50
2019-05-16T16:16:34.191Z,16.50
2019-05-16T16:19:06.609Z,16.20
2019-05-16T16:21:37.958Z,16.20
2019-05-16T16:24:09.269Z,15.90
2019-05-16T16:26:39.912Z,15.80
2019-05-16T16:29:10.603Z,15.60
2019-05-16T16:31:41.171Z,15.40
2019-05-16T16:34:11.682Z,15.20
2019-05-16T16:36:42.746Z,15.10
2019-05-16T16:39:13.282Z,15.10
2019-05-16T16:41:43.848Z,14.90
2019-05-16T16:44:17.169Z,14.80
2019-05-16T16:46:46.835Z,14.60
2019-05-16T16:49:17.581Z,14.50
2019-05-16T16:51:48.276Z,14.50
2019-05-16T16:54:18.978Z,14.40
2019-05-16T16:56:49.561Z,14.50
2019-05-16T16:59:20.223Z,14.40
2019-05-16T17:01:50.775Z,14.50
2019-05-16T17:04:21.331Z,14.40
2019-05-16T17:06:51.950Z,14.30
2019-05-16T17:09:22.423Z,14.10
2019-05-16T17:11:53.386Z,14.10
2019-05-16T17:14:25.972Z,14.00
2019-05-16T17:16:57.502Z,14.00
2019-05-16T17:19:28.205Z,14.10
2019-05-16T17:22:13.026Z,14.00
2019-05-16T17:24:31.071Z,13.90
2019-05-16T17:27:07.828Z,13.80
2019-05-16T17:29:37.182Z,13.80
2019-05-16T17:32:10.072Z,13.70
2019-05-16T17:34:42.305Z,13.70
2019-05-16T17:37:30.748Z,13.70
2019-05-16T17:40:37.958Z,13.60
2019-05-16T17:44:20.876Z,13.60
2019-05-16T17:47:46.439Z,13.70
2019-05-16T17:50:37.079Z,13.70
2019-05-16T17:53:07.377Z,13.70
2019-05-16T17:55:39.223Z,13.80
2019-05-16T17:58:09.935Z,13.90
2019-05-16T18:00:41.524Z,13.80
2019-05-16T18:03:12.192Z,13.80
2019-05-16T18:05:42.766Z,13.80
2019-05-16T18:08:14.560Z,13.80
2019-05-16T18:10:47.075Z,13.80
2019-05-16T18:13:17.289Z,13.80
2019-05-16T18:15:47.801Z,13.80
2019-05-16T18:18:18.454Z,13.80
2019-05-16T18:20:58.056Z,13.80
2019-05-16T18:23:21.286Z,13.70
2019-05-16T18:25:51.905Z,13.60
2019-05-16T18:28:22.791Z,13.60
2019-05-16T18:30:53.405Z,13.60
2019-05-16T18:33:23.877Z,13.60
2019-05-16T18:35:54.597Z,13.60
2019-05-16T18:38:26.509Z,13.70
2019-05-16T18:40:57.174Z,13.70
2019-05-16T18:43:27.812Z,13.70
2019-05-16T18:45:58.295Z,13.70
2019-05-16T18:48:28.919Z,13.60
2019-05-16T18:50:59.836Z,13.60
2019-05-16T18:53:30.909Z,13.60
2019-05-16T18:56:01.585Z,13.60
2019-05-16T18:58:32.202Z,13.60
2019-05-16T19:01:02.835Z,13.60
2019-05-16T19:03:33.450Z,13.60
2019-05-16T19:06:04.113Z,13.60
2019-05-16T19:08:36.423Z,13.60
2019-05-16T19:11:07.601Z,13.60
2019-05-16T19:13:38.392Z,13.60
2019-05-16T19:16:08.981Z,13.60
2019-05-16T19:18:39.791Z,13.60
2019-05-16T19:21:10.363Z,13.50
2019-05-16T19:23:40.934Z,13.50
2019-05-16T19:26:11.542Z,13.50
2019-05-16T19:28:42.123Z,13.50
2019-05-16T19:31:12.782Z,13.50
2019-05-16T19:33:43.322Z,13.60
2019-05-16T19:36:13.900Z,13.50
2019-05-16T19:38:46.456Z,13.50
2019-05-16T19:41:16.638Z,13.50
2019-05-16T19:43:47.226Z,13.50
2019-05-16T19:46:17.783Z,13.50
2019-05-16T19:48:48.710Z,13.50
2019-05-16T19:51:19.205Z,13.50
2019-05-16T19:53:49.797Z,13.50
2019-05-16T19:56:20.357Z,13.50
2019-05-16T19:58:50.959Z,13.40
2019-05-16T20:01:21.520Z,13.40
2019-05-16T20:03:52.129Z,13.40
2019-05-16T20:06:22.647Z,13.40
2019-05-16T20:08:53.305Z,13.40
2019-05-16T20:11:23.811Z,13.40
2019-05-16T20:13:56.677Z,13.40
2019-05-16T20:16:27.359Z,13.40
2019-05-16T20:18:58.107Z,13.40
2019-05-16T20:21:28.625Z,13.40
2019-05-16T20:24:00.427Z,13.30
2019-05-16T20:26:30.957Z,13.30
2019-05-16T20:29:01.725Z,13.30
2019-05-16T20:31:32.407Z,13.20
2019-05-16T20:34:03.183Z,13.20
2019-05-16T20:36:34.214Z,13.20
2019-05-16T20:39:08.371Z,13.10
2019-05-16T20:41:38.836Z,13.10
2019-05-16T20:44:09.544Z,13.00
2019-05-16T20:46:40.231Z,13.00
2019-05-16T20:49:11.244Z,13.00
2019-05-16T20:54:11.729Z,12.80
2019-05-16T20:56:42.393Z,12.80
2019-05-16T20:59:13.053Z,12.80
2019-05-16T21:01:43.811Z,12.80
2019-05-16T21:04:14.373Z,12.80
2019-05-16T21:06:57.468Z,12.80
2019-05-16T21:09:17.155Z,12.70
2019-05-16T21:11:50.115Z,12.70
2019-05-16T21:14:19.947Z,12.70
2019-05-16T21:16:50.523Z,12.70
2019-05-16T21:19:22.363Z,12.60
2019-05-16T21:21:52.911Z,12.60
2019-05-16T21:24:23.659Z,12.60
2019-05-16T21:26:54.201Z,12.60
2019-05-16T21:29:47.193Z,12.60
2019-05-16T21:32:17.822Z,12.50
2019-05-16T21:35:00.118Z,12.50
2019-05-16T21:37:30.803Z,12.50
2019-05-16T21:40:01.434Z,12.40
2019-05-16T21:42:33.167Z,12.40
2019-05-16T21:45:03.704Z,12.40
2019-05-16T21:47:36.929Z,12.40
2019-05-16T21:50:09.284Z,12.40
2019-05-16T21:52:39.916Z,12.40
2019-05-16T21:55:10.590Z,12.40
2019-05-16T21:57:41.221Z,12.30
2019-05-16T22:00:21.559Z,12.30
2019-05-16T22:02:54.076Z,12.30
2019-05-16T22:05:24.992Z,12.30
2019-05-16T22:07:56.750Z,12.30
2019-05-16T22:10:27.610Z,12.30
2019-05-16T22:12:59.990Z,12.20
2019-05-16T22:15:31.095Z,12.20
2019-05-16T22:18:01.992Z,12.10
2019-05-16T22:20:32.922Z,12.20
2019-05-16T22:23:03.561Z,12.20
2019-05-16T22:25:34.159Z,12.10
2019-05-16T22:28:07.241Z,12.10
2019-05-16T22:30:37.407Z,12.10
2019-05-16T22:33:09.262Z,12.10
2019-05-16T22:35:39.938Z,12.00
2019-05-16T22:38:12.317Z,12.00
2019-05-16T22:40:42.934Z,12.00
2019-05-16T22:43:13.626Z,11.90
2019-05-16T22:45:46.656Z,11.90
2019-05-16T22:48:17.238Z,11.90
2019-05-16T22:50:48.111Z,11.80
2019-05-16T22:53:18.676Z,11.80
2019-05-16T22:55:49.413Z,11.80
2019-05-16T22:58:19.993Z,11.80
2019-05-16T23:00:50.874Z,11.70
2019-05-16T23:03:21.560Z,11.70
2019-05-16T23:05:52.219Z,11.70
2019-05-16T23:08:22.829Z,11.60
2019-05-16T23:10:53.412Z,11.60
2019-05-16T23:13:23.915Z,11.60
2019-05-16T23:15:54.436Z,11.60
2019-05-16T23:18:26.708Z,11.60
2019-05-16T23:20:57.126Z,11.60
2019-05-16T23:23:27.818Z,11.60
2019-05-16T23:25:58.374Z,11.60
2019-05-16T23:28:29.029Z,11.60
2019-05-16T23:30:59.567Z,11.70
2019-05-16T23:33:30.109Z,11.70
2019-05-16T23:36:00.718Z,11.60
2019-05-16T23:38:31.258Z,11.50
2019-05-16T23:41:01.919Z,11.50
2019-05-16T23:43:32.610Z,11.30
2019-05-16T23:46:03.177Z,11.20
2019-05-16T23:48:33.712Z,11.20
2019-05-16T23:51:04.796Z,11.20
2019-05-16T23:53:37.081Z,11.10
2019-05-16T23:56:07.709Z,11.10
2019-05-16T23:58:44.247Z,11.20
